createdAt,value
2018-03-08T00:01:38.401Z,6.15
2018-03-08T00:04:06.785Z,6.11
2018-03-08T00:06:35.132Z,5.89
2018-03-08T00:09:03.441Z,6.05
2018-03-08T00:11:31.821Z,5.88
2018-03-08T00:14:00.152Z,5.96
2018-03-08T00:16:28.515Z,6.01
2018-03-08T00:18:57.014Z,5.79
2018-03-08T00:21:25.375Z,5.77
2018-03-08T00:23:53.712Z,5.72
2018-03-08T00:26:22.835Z,5.79
2018-03-08T00:28:51.168Z,5.79
2018-03-08T00:31:19.510Z,5.75
2018-03-08T00:33:47.880Z,5.65
2018-03-08T00:36:16.339Z,5.59
2018-03-08T00:38:44.660Z,5.55
2018-03-08T00:41:13.533Z,5.71
2018-03-08T00:43:41.848Z,5.79
2018-03-08T00:46:10.197Z,5.77
2018-03-08T00:48:38.529Z,5.81
2018-03-08T00:51:07.633Z,5.75
2018-03-08T00:53:36.722Z,5.71
2018-03-08T00:56:05.853Z,5.40
2018-03-08T00:58:34.178Z,5.29
2018-03-08T01:01:03.353Z,5.17
2018-03-08T01:03:31.788Z,5.46
2018-03-08T01:06:00.931Z,5.57
2018-03-08T01:08:29.278Z,5.61
2018-03-08T01:10:57.621Z,5.57
2018-03-08T01:13:25.939Z,5.30
2018-03-08T01:15:54.252Z,5.38
2018-03-08T01:18:22.637Z,5.25
2018-03-08T01:20:50.973Z,5.16
2018-03-08T01:23:19.318Z,5.32
2018-03-08T01:25:48.629Z,5.56
2018-03-08T01:28:17.736Z,5.68
2018-03-08T01:30:46.056Z,5.66
2018-03-08T01:33:14.428Z,5.50
2018-03-08T01:35:42.777Z,5.45
2018-03-08T01:38:11.220Z,5.53
2018-03-08T01:40:40.365Z,5.53
2018-03-08T01:43:08.694Z,5.56
2018-03-08T01:45:37.032Z,5.59
2018-03-08T01:48:05.573Z,5.68
2018-03-08T01:50:34.652Z,5.72
2018-03-08T01:53:03.769Z,5.63
2018-03-08T01:55:32.108Z,5.57
2018-03-08T01:58:00.637Z,5.64
2018-03-08T02:00:29.706Z,5.52
2018-03-08T02:02:58.266Z,5.39
2018-03-08T02:05:26.642Z,5.51
2018-03-08T02:07:55.044Z,5.49
2018-03-08T02:10:23.755Z,5.42
2018-03-08T02:12:52.284Z,5.50
2018-03-08T02:15:20.924Z,5.65
2018-03-08T02:17:50.028Z,5.54
2018-03-08T02:20:18.395Z,5.58
2018-03-08T02:22:47.497Z,5.34
2018-03-08T02:25:16.653Z,5.29
2018-03-08T02:27:44.977Z,5.17
2018-03-08T02:30:13.446Z,5.12
2018-03-08T02:32:43.154Z,5.21
2018-03-08T02:35:11.565Z,5.31
2018-03-08T02:37:40.243Z,5.04
2018-03-08T02:40:08.827Z,4.85
2018-03-08T02:42:37.509Z,4.84
2018-03-08T02:45:05.798Z,4.81
2018-03-08T02:47:34.142Z,4.91
2018-03-08T02:50:02.468Z,5.08
2018-03-08T02:52:31.022Z,5.13
2018-03-08T02:54:59.692Z,5.02
2018-03-08T02:57:28.342Z,5.11
2018-03-08T02:59:56.654Z,5.17
2018-03-08T03:02:25.025Z,4.90
2018-03-08T03:04:53.457Z,5.03
2018-03-08T03:07:21.786Z,5.12
2018-03-08T03:09:50.987Z,5.06
2018-03-08T03:12:19.282Z,5.24
2018-03-08T03:14:47.593Z,5.25
2018-03-08T03:17:16.522Z,5.26
2018-03-08T03:19:44.984Z,5.27
2018-03-08T03:22:13.419Z,5.03
2018-03-08T03:24:41.800Z,5.09
2018-03-08T03:27:10.384Z,5.19
2018-03-08T03:29:38.717Z,5.15
2018-03-08T03:32:07.218Z,5.02
2018-03-08T03:34:35.590Z,4.92
2018-03-08T03:37:05.563Z,5.01
2018-03-08T03:39:34.104Z,4.99
2018-03-08T03:42:02.689Z,4.94
2018-03-08T03:44:31.142Z,5.01
2018-03-08T03:46:59.730Z,5.09
2018-03-08T03:49:28.134Z,5.16
2018-03-08T03:51:56.614Z,5.27
2018-03-08T03:54:24.976Z,5.13
2018-03-08T03:56:53.300Z,5.09
2018-03-08T03:59:21.853Z,5.09
2018-03-08T04:01:50.229Z,4.94
2018-03-08T04:04:18.854Z,5.00
2018-03-08T04:06:47.282Z,5.01
2018-03-08T04:09:15.644Z,4.99
2018-03-08T04:11:44.297Z,5.18
2018-03-08T04:14:12.604Z,4.80
2018-03-08T04:16:41.011Z,4.92
2018-03-08T04:19:09.782Z,4.96
2018-03-08T04:21:38.111Z,5.04
2018-03-08T04:24:07.548Z,5.16
2018-03-08T04:26:35.873Z,5.30
2018-03-08T04:29:04.220Z,5.32
2018-03-08T04:31:32.752Z,5.14
2018-03-08T04:34:01.145Z,5.06
2018-03-08T04:36:29.511Z,5.17
2018-03-08T04:38:57.888Z,5.10
2018-03-08T04:41:26.954Z,5.17
2018-03-08T04:43:55.294Z,5.13
2018-03-08T04:46:23.700Z,5.17
2018-03-08T04:48:52.099Z,5.11
2018-03-08T04:51:20.708Z,5.18
2018-03-08T04:53:49.287Z,5.39
2018-03-08T04:56:18.643Z,5.25
2018-03-08T04:58:47.005Z,5.11
2018-03-08T05:01:15.352Z,5.25
2018-03-08T05:03:44.444Z,5.32
2018-03-08T05:06:12.770Z,5.21
2018-03-08T05:08:41.614Z,5.18
2018-03-08T05:11:09.924Z,5.15
2018-03-08T05:13:38.256Z,4.93
2018-03-08T05:16:06.602Z,5.01
2018-03-08T05:18:35.050Z,5.05
2018-03-08T05:21:03.393Z,4.96
2018-03-08T05:23:31.768Z,4.82
2018-03-08T05:26:00.093Z,4.79
2018-03-08T05:28:28.404Z,4.90
2018-03-08T05:30:56.963Z,4.82
2018-03-08T05:33:25.286Z,4.98
2018-03-08T05:35:53.610Z,4.96
2018-03-08T05:38:21.962Z,5.07
2018-03-08T05:40:50.316Z,5.31
2018-03-08T05:43:18.668Z,5.28
2018-03-08T05:45:47.019Z,5.50
2018-03-08T05:48:15.340Z,5.46
2018-03-08T05:50:43.657Z,5.47
2018-03-08T05:53:13.096Z,5.70
2018-03-08T05:55:41.961Z,5.69
2018-03-08T05:58:10.460Z,5.73
2018-03-08T06:00:38.815Z,5.71
2018-03-08T06:03:07.980Z,5.82
2018-03-08T06:05:36.345Z,5.79
2018-03-08T06:08:04.725Z,5.81
2018-03-08T06:10:33.102Z,6.10
2018-03-08T06:13:01.442Z,6.09
2018-03-08T06:15:29.843Z,6.07
2018-03-08T06:17:58.174Z,6.06
2018-03-08T06:20:27.313Z,6.21
2018-03-08T06:22:55.677Z,6.26
2018-03-08T06:25:23.992Z,6.36
2018-03-08T06:27:52.464Z,6.22
2018-03-08T06:30:20.810Z,6.06
2018-03-08T06:32:49.136Z,6.22
2018-03-08T06:35:17.642Z,6.12
2018-03-08T06:37:46.327Z,6.35
2018-03-08T06:40:14.677Z,6.37
2018-03-08T06:42:43.023Z,6.34
2018-03-08T06:45:11.501Z,6.47
2018-03-08T06:47:39.842Z,6.34
2018-03-08T06:50:08.189Z,6.39
2018-03-08T06:52:36.564Z,6.57
2018-03-08T06:55:04.914Z,6.46
2018-03-08T06:57:33.657Z,6.60
2018-03-08T07:00:02.061Z,6.79
2018-03-08T07:02:30.649Z,6.79
2018-03-08T07:04:59.763Z,6.41
2018-03-08T07:07:28.110Z,6.64
2018-03-08T07:09:56.425Z,6.76
2018-03-08T07:12:24.805Z,6.82
2018-03-08T07:14:53.160Z,6.77
2018-03-08T07:17:21.710Z,6.74
2018-03-08T07:19:50.054Z,6.81
2018-03-08T07:22:18.599Z,6.88
2018-03-08T07:24:46.980Z,6.81
2018-03-08T07:27:15.364Z,6.53
2018-03-08T07:29:44.520Z,6.55
2018-03-08T07:32:13.067Z,6.67
2018-03-08T07:34:41.538Z,6.73
2018-03-08T07:37:10.025Z,6.57
2018-03-08T07:39:38.377Z,6.72
2018-03-08T07:42:06.887Z,6.72
2018-03-08T07:44:35.300Z,6.82
2018-03-08T07:47:03.742Z,6.92
2018-03-08T07:49:32.113Z,7.01
2018-03-08T07:52:00.584Z,6.91
2018-03-08T07:54:29.326Z,6.81
2018-03-08T07:56:57.651Z,6.82
2018-03-08T07:59:26.919Z,6.79
2018-03-08T08:01:55.244Z,6.84
2018-03-08T08:04:42.170Z,7.11
2018-03-08T08:07:28.812Z,6.95
2018-03-08T08:09:57.295Z,6.85
2018-03-08T08:12:25.771Z,6.78
2018-03-08T08:14:54.425Z,6.88
2018-03-08T08:17:22.790Z,6.90
2018-03-08T08:19:51.928Z,6.75
2018-03-08T08:22:20.415Z,6.58
2018-03-08T08:24:48.996Z,6.50
2018-03-08T08:27:17.317Z,6.53
2018-03-08T08:29:46.572Z,6.85
2018-03-08T08:32:15.058Z,7.07
2018-03-08T08:34:43.398Z,7.20
2018-03-08T08:37:12.047Z,7.28
2018-03-08T08:39:40.683Z,7.29
2018-03-08T08:42:09.029Z,7.35
2018-03-08T08:44:38.136Z,7.39
2018-03-08T08:47:07.368Z,7.24
2018-03-08T08:49:35.681Z,7.38
2018-03-08T08:52:04.045Z,7.38
2018-03-08T08:54:32.444Z,7.63
2018-03-08T08:57:00.746Z,7.25
2018-03-08T08:59:30.013Z,7.35
2018-03-08T09:01:58.423Z,6.99
2018-03-08T09:04:27.539Z,7.33
2018-03-08T09:06:55.868Z,7.27
2018-03-08T09:09:24.739Z,7.08
2018-03-08T09:11:53.104Z,7.02
2018-03-08T09:14:21.424Z,7.03
2018-03-08T09:16:49.782Z,7.26
2018-03-08T09:19:18.863Z,6.99
2018-03-08T09:21:47.192Z,7.06
2018-03-08T09:24:15.594Z,7.07
2018-03-08T09:26:43.930Z,7.29
2018-03-08T09:29:12.284Z,7.43
2018-03-08T09:31:40.733Z,7.44
2018-03-08T09:34:09.276Z,7.63
2018-03-08T09:36:37.591Z,7.63
2018-03-08T09:39:05.935Z,7.36
2018-03-08T09:41:34.287Z,7.34
2018-03-08T09:44:02.694Z,7.44
2018-03-08T09:46:31.064Z,7.82
2018-03-08T09:48:59.437Z,7.64
2018-03-08T09:51:27.781Z,7.88
2018-03-08T09:53:56.544Z,7.54
2018-03-08T09:56:24.895Z,7.63
2018-03-08T09:58:53.269Z,7.91
2018-03-08T10:01:21.647Z,8.18
2018-03-08T10:03:49.967Z,8.31
2018-03-08T10:06:18.331Z,8.72
2018-03-08T10:08:46.764Z,8.48
2018-03-08T10:11:15.120Z,8.48
2018-03-08T10:13:43.537Z,8.44
2018-03-08T10:16:12.226Z,8.69
2018-03-08T10:18:40.557Z,8.72
2018-03-08T10:21:08.904Z,8.46
2018-03-08T10:23:37.253Z,9.02
2018-03-08T10:26:05.651Z,9.13
2018-03-08T10:28:34.014Z,9.50
2018-03-08T10:31:02.348Z,10.44
2018-03-08T10:33:30.763Z,11.73
2018-03-08T10:35:59.120Z,11.03
2018-03-08T10:38:27.740Z,10.92
2018-03-08T10:40:56.121Z,10.70
2018-03-08T10:43:24.519Z,10.88
2018-03-08T10:45:52.998Z,11.13
2018-03-08T10:48:21.320Z,11.40
2018-03-08T10:50:49.636Z,10.84
2018-03-08T10:53:18.008Z,10.66
2018-03-08T10:55:46.344Z,12.92
2018-03-08T10:58:14.731Z,14.46
2018-03-08T11:00:46.985Z,13.00
2018-03-08T11:03:16.077Z,12.39
2018-03-08T11:05:47.443Z,11.87
2018-03-08T11:08:16.809Z,10.76
2018-03-08T11:10:45.202Z,10.98
2018-03-08T11:13:13.552Z,11.25
2018-03-08T11:15:41.908Z,11.25
2018-03-08T11:18:10.426Z,11.31
2018-03-08T11:20:38.941Z,11.41
2018-03-08T11:23:07.647Z,11.72
2018-03-08T11:25:35.974Z,12.42
2018-03-08T11:28:04.311Z,13.72
2018-03-08T11:30:32.678Z,14.42
2018-03-08T11:33:01.192Z,14.74
2018-03-08T11:35:29.524Z,15.32
2018-03-08T11:37:58.946Z,14.60
2018-03-08T11:40:27.331Z,16.03
2018-03-08T11:42:55.914Z,16.75
2018-03-08T11:45:24.366Z,19.01
2018-03-08T11:47:52.712Z,19.12
2018-03-08T11:50:21.853Z,18.53
2018-03-08T11:52:49.422Z,17.11
2018-03-08T11:55:17.754Z,16.39
2018-03-08T11:57:46.126Z,17.11
2018-03-08T12:00:14.580Z,18.29
2018-03-08T12:02:42.891Z,18.44
2018-03-08T12:05:11.288Z,18.27
2018-03-08T12:07:40.904Z,18.63
2018-03-08T12:10:09.994Z,16.82
2018-03-08T12:12:38.341Z,18.77
2018-03-08T12:15:06.690Z,19.68
2018-03-08T12:17:35.084Z,21.59
2018-03-08T12:20:03.397Z,19.88
2018-03-08T12:22:31.753Z,18.95
2018-03-08T12:25:00.051Z,21.31
2018-03-08T12:27:28.433Z,23.45
2018-03-08T12:29:56.997Z,21.63
2018-03-08T12:32:25.410Z,22.10
2018-03-08T12:34:54.545Z,24.20
2018-03-08T12:37:23.165Z,22.87
2018-03-08T12:39:51.502Z,21.56
2018-03-08T12:42:19.844Z,20.84
2018-03-08T12:44:48.230Z,22.03
2018-03-08T12:47:16.561Z,23.32
2018-03-08T12:49:44.899Z,21.19
2018-03-08T12:52:13.294Z,23.32
2018-03-08T12:54:41.649Z,23.66
2018-03-08T12:57:10.065Z,22.45
2018-03-08T12:59:38.442Z,23.64
2018-03-08T13:02:06.824Z,21.61
2018-03-08T13:04:35.172Z,19.95
2018-03-08T13:07:04.281Z,19.35
2018-03-08T13:09:32.597Z,22.12
2018-03-08T13:12:00.913Z,22.31
2018-03-08T13:14:29.521Z,22.91
2018-03-08T13:16:58.216Z,21.29
2018-03-08T13:19:26.575Z,21.98
2018-03-08T13:21:55.716Z,19.58
2018-03-08T13:24:24.099Z,19.67
2018-03-08T13:26:53.460Z,22.71
2018-03-08T13:29:22.569Z,20.98
2018-03-08T13:31:51.671Z,22.11
2018-03-08T13:34:19.998Z,19.86
2018-03-08T13:36:48.470Z,18.70
2018-03-08T13:39:16.837Z,17.18
2018-03-08T13:41:45.169Z,19.30
2018-03-08T13:44:14.365Z,20.83
2018-03-08T13:46:42.717Z,21.53
2018-03-08T13:49:29.595Z,22.41
2018-03-08T13:51:57.944Z,19.55
2018-03-08T13:54:27.026Z,18.98
2018-03-08T13:56:56.357Z,17.85
2018-03-08T13:59:24.739Z,19.56
2018-03-08T14:01:53.081Z,21.77
2018-03-08T14:04:21.430Z,20.57
2018-03-08T14:06:50.514Z,20.89
2018-03-08T14:09:18.827Z,18.39
2018-03-08T14:11:47.175Z,18.83
2018-03-08T14:14:15.480Z,19.01
2018-03-08T14:16:43.783Z,16.82
2018-03-08T14:19:13.100Z,15.95
2018-03-08T14:21:41.466Z,15.62
2018-03-08T14:24:09.837Z,16.07
2018-03-08T14:26:38.957Z,15.59
2018-03-08T14:29:07.318Z,14.45
2018-03-08T14:31:36.469Z,14.30
2018-03-08T14:34:04.840Z,14.72
2018-03-08T14:36:33.179Z,14.79
2018-03-08T14:39:01.514Z,14.63
2018-03-08T14:41:29.930Z,14.09
2018-03-08T14:43:58.269Z,13.86
2018-03-08T14:46:26.624Z,13.78
2018-03-08T14:48:54.993Z,13.49
2018-03-08T14:51:23.313Z,13.23
2018-03-08T14:53:51.683Z,13.32
2018-03-08T14:56:20.038Z,13.36
2018-03-08T14:58:48.419Z,13.71
2018-03-08T15:01:16.761Z,13.30
2018-03-08T15:03:45.509Z,13.99
2018-03-08T15:06:13.845Z,14.36
2018-03-08T15:08:42.163Z,14.54
2018-03-08T15:11:10.511Z,14.28
2018-03-08T15:13:38.810Z,14.62
2018-03-08T15:16:07.147Z,14.47
2018-03-08T15:18:35.514Z,13.90
2018-03-08T15:21:03.853Z,13.00
2018-03-08T15:23:32.221Z,12.90
2018-03-08T15:26:00.636Z,13.25
2018-03-08T15:28:28.994Z,13.41
2018-03-08T15:30:57.372Z,13.28
2018-03-08T15:33:25.815Z,12.91
2018-03-08T15:35:54.116Z,12.47
2018-03-08T15:38:22.513Z,12.10
2018-03-08T15:40:50.989Z,12.09
2018-03-08T15:43:19.324Z,11.85
2018-03-08T15:45:47.680Z,11.93
2018-03-08T15:48:17.301Z,11.68
2018-03-08T15:50:46.383Z,11.87
2018-03-08T15:53:14.741Z,11.72
2018-03-08T15:55:43.112Z,11.58
2018-03-08T15:58:11.540Z,11.60
2018-03-08T16:00:40.718Z,11.68
2018-03-08T16:03:08.996Z,11.86
2018-03-08T16:05:37.358Z,11.80
2018-03-08T16:11:32.722Z,11.68
2018-03-08T16:14:01.826Z,11.40
2018-03-08T16:16:30.180Z,11.46
2018-03-08T16:18:58.488Z,11.55
2018-03-08T16:21:41.686Z,11.51
2018-03-08T16:24:10.798Z,11.39
2018-03-08T16:26:39.911Z,11.38
2018-03-08T16:29:08.635Z,11.36
2018-03-08T16:31:36.885Z,11.08
2018-03-08T16:34:05.203Z,11.31
2018-03-08T16:36:33.772Z,11.54
2018-03-08T16:39:02.086Z,11.49
2018-03-08T16:41:31.186Z,11.22
2018-03-08T16:44:00.303Z,11.21
2018-03-08T16:46:29.366Z,11.23
2018-03-08T16:48:57.718Z,11.17
2018-03-08T16:51:26.203Z,11.18
2018-03-08T16:53:54.491Z,10.93
2018-03-08T16:56:22.812Z,10.87
2018-03-08T16:58:51.910Z,10.98
2018-03-08T17:01:20.243Z,10.70
2018-03-08T17:03:48.612Z,10.58
2018-03-08T17:06:16.986Z,10.54
2018-03-08T17:08:45.320Z,10.55
2018-03-08T17:11:14.407Z,10.32
2018-03-08T17:13:42.807Z,10.17
2018-03-08T17:16:11.901Z,10.21
2018-03-08T17:18:40.264Z,9.96
2018-03-08T17:21:08.604Z,9.96
2018-03-08T17:23:36.898Z,9.88
2018-03-08T17:26:05.233Z,10.03
2018-03-08T17:28:33.638Z,10.11
2018-03-08T17:31:02.085Z,9.60
2018-03-08T17:33:30.452Z,9.60
2018-03-08T17:35:59.173Z,9.50
2018-03-08T17:38:27.517Z,9.45
2018-03-08T17:40:55.841Z,9.39
2018-03-08T17:43:24.253Z,9.18
2018-03-08T17:45:53.403Z,9.21
2018-03-08T17:48:21.786Z,9.41
2018-03-08T17:50:50.098Z,9.32
2018-03-08T17:53:18.402Z,9.55
2018-03-08T17:55:46.777Z,9.64
2018-03-08T17:58:15.154Z,9.96
2018-03-08T18:00:43.504Z,9.87
2018-03-08T18:03:11.825Z,9.91
2018-03-08T18:05:40.235Z,9.69
2018-03-08T18:08:08.572Z,9.64
2018-03-08T18:10:37.683Z,9.64
2018-03-08T18:13:06.083Z,9.51
2018-03-08T18:15:34.444Z,9.54
2018-03-08T18:18:02.850Z,9.28
2018-03-08T18:20:31.503Z,9.29
2018-03-08T18:22:59.836Z,9.24
2018-03-08T18:25:28.154Z,9.37
2018-03-08T18:27:57.289Z,9.50
2018-03-08T18:30:25.614Z,9.52
2018-03-08T18:32:54.721Z,9.43
2018-03-08T18:35:23.901Z,9.48
2018-03-08T18:37:52.260Z,9.49
2018-03-08T18:40:20.589Z,9.49
2018-03-08T18:42:49.267Z,9.25
2018-03-08T18:45:17.597Z,9.17
2018-03-08T18:47:45.965Z,9.34
2018-03-08T18:50:14.417Z,9.10
2018-03-08T18:52:42.731Z,8.88
2018-03-08T18:55:11.028Z,8.99
2018-03-08T18:57:39.394Z,9.06
2018-03-08T19:00:07.705Z,9.04
2018-03-08T19:02:36.810Z,9.14
2018-03-08T19:05:06.034Z,9.34
2018-03-08T19:07:34.363Z,9.43
2018-03-08T19:10:03.466Z,9.18
2018-03-08T19:12:32.642Z,8.98
2018-03-08T19:15:00.998Z,9.17
2018-03-08T19:17:29.319Z,8.84
2018-03-08T19:19:57.668Z,8.87
2018-03-08T19:22:26.039Z,8.79
2018-03-08T19:24:54.398Z,8.94
2018-03-08T19:27:22.909Z,9.01
2018-03-08T19:29:51.273Z,8.63
2018-03-08T19:32:19.597Z,8.17
2018-03-08T19:34:48.789Z,8.18
2018-03-08T19:37:17.182Z,8.18
2018-03-08T19:39:45.532Z,7.87
2018-03-08T19:42:13.891Z,7.87
2018-03-08T19:44:42.415Z,7.89
2018-03-08T19:47:10.752Z,7.81
2018-03-08T19:49:39.383Z,7.85
2018-03-08T19:52:08.534Z,7.41
2018-03-08T19:54:36.873Z,7.18
2018-03-08T19:57:05.398Z,7.02
2018-03-08T19:59:33.793Z,7.26
2018-03-08T20:02:02.138Z,7.34
2018-03-08T20:04:30.555Z,7.22
2018-03-08T20:06:58.911Z,7.13
2018-03-08T20:09:27.294Z,7.39
2018-03-08T20:11:55.769Z,7.04
2018-03-08T20:14:24.902Z,6.97
2018-03-08T20:16:53.247Z,7.28
2018-03-08T20:19:21.612Z,7.41
2018-03-08T20:21:49.945Z,7.31
2018-03-08T20:24:18.320Z,7.13
2018-03-08T20:26:46.689Z,7.18
2018-03-08T20:29:15.049Z,7.01
2018-03-08T20:31:43.399Z,7.16
2018-03-08T20:34:11.964Z,7.02
2018-03-08T20:36:40.354Z,7.02
2018-03-08T20:39:08.689Z,6.98
2018-03-08T20:41:37.036Z,7.11
2018-03-08T20:44:05.360Z,7.23
2018-03-08T20:46:34.462Z,7.08
2018-03-08T20:49:03.643Z,7.12
2018-03-08T20:51:32.050Z,7.11
2018-03-08T20:54:01.971Z,7.05
2018-03-08T20:56:31.188Z,6.96
2018-03-08T20:58:59.563Z,6.93
2018-03-08T21:01:27.940Z,6.70
2018-03-08T21:03:56.312Z,6.70
2018-03-08T21:06:24.671Z,6.70
2018-03-08T21:08:53.778Z,6.40
2018-03-08T21:11:22.170Z,6.33
2018-03-08T21:13:50.512Z,6.40
2018-03-08T21:16:18.893Z,6.44
2018-03-08T21:18:47.327Z,6.61
2018-03-08T21:21:15.821Z,6.54
2018-03-08T21:23:44.938Z,6.75
2018-03-08T21:26:13.603Z,6.90
2018-03-08T21:28:42.348Z,6.57
2018-03-08T21:31:11.459Z,6.63
2018-03-08T21:33:39.826Z,6.72
2018-03-08T21:36:08.135Z,6.70
2018-03-08T21:38:36.473Z,6.78
2018-03-08T21:41:06.074Z,6.33
2018-03-08T21:43:34.396Z,6.36
2018-03-08T21:46:02.750Z,6.45
2018-03-08T21:48:31.873Z,6.49
2018-03-08T21:51:00.199Z,6.72
2018-03-08T21:53:28.548Z,6.80
2018-03-08T21:55:56.901Z,6.75
2018-03-08T21:58:25.213Z,6.54
2018-03-08T22:00:53.580Z,6.21
2018-03-08T22:03:22.240Z,6.27
2018-03-08T22:05:50.557Z,6.33
2018-03-08T22:08:18.952Z,6.41
2018-03-08T22:10:47.309Z,6.09
2018-03-08T22:13:15.678Z,5.98
2018-03-08T22:15:44.002Z,6.02
2018-03-08T22:18:12.361Z,6.37
2018-03-08T22:20:40.741Z,6.11
2018-03-08T22:23:09.080Z,6.26
2018-03-08T22:25:37.595Z,6.22
2018-03-08T22:28:05.961Z,6.25
2018-03-08T22:30:34.320Z,6.28
2018-03-08T22:33:02.709Z,6.45
2018-03-08T22:35:31.084Z,6.51
2018-03-08T22:37:59.440Z,6.58
2018-03-08T22:40:27.809Z,6.49
2018-03-08T22:42:56.932Z,6.53
2018-03-08T22:45:25.997Z,6.43
2018-03-08T22:47:54.423Z,6.37
2018-03-08T22:50:22.835Z,6.36
2018-03-08T22:52:51.160Z,6.26
2018-03-08T22:55:19.871Z,6.06
2018-03-08T22:57:48.275Z,6.00
2018-03-08T23:00:18.376Z,6.08
2018-03-08T23:02:46.903Z,6.51
2018-03-08T23:05:15.299Z,6.26
2018-03-08T23:07:43.633Z,6.40
2018-03-08T23:10:12.042Z,6.34
2018-03-08T23:12:40.399Z,6.26
2018-03-08T23:15:08.735Z,6.43
2018-03-08T23:17:37.105Z,6.51
2018-03-08T23:20:05.446Z,6.16
2018-03-08T23:22:33.784Z,6.14
2018-03-08T23:25:02.173Z,6.11
2018-03-08T23:27:30.480Z,6.21
2018-03-08T23:29:58.809Z,6.26
2018-03-08T23:32:27.577Z,6.44
2018-03-08T23:34:56.678Z,6.46
2018-03-08T23:37:25.017Z,6.26
2018-03-08T23:39:54.153Z,6.41
2018-03-08T23:42:23.238Z,6.42
2018-03-08T23:44:52.339Z,6.25
2018-03-08T23:47:21.559Z,6.39
2018-03-08T23:49:49.890Z,6.28
2018-03-08T23:52:18.237Z,6.06
2018-03-08T23:54:46.936Z,6.46
2018-03-08T23:57:15.284Z,6.43
2018-03-08T23:59:43.618Z,6.33
